CDT,Max TemperatureF,Mean TemperatureF,Min TemperatureF,Max Dew PointF,MeanDew PointF,Min DewpointF,Max Humidity, Mean Humidity, Min Humidity, Max Sea Level PressureIn, Mean Sea Level PressureIn, Min Sea Level PressureIn, Max VisibilityMiles, Mean VisibilityMiles, Min VisibilityMiles, Max Wind SpeedMPH, Mean Wind SpeedMPH, Max Gust SpeedMPH,PrecipitationIn, CloudCover, Events, WindDirDegrees
2012-9-1,75,66,57,61,54,48,88,64,44,30.19,30.17,30.13,10,10,10,16,6,24,0.00,0,,46
2012-9-2,78,73,68,59,55,54,73,52,42,30.07,30.02,29.98,10,10,10,12,9,,0.00,0,,91
2012-9-3,80,73,66,70,65,63,94,82,65,29.97,29.95,29.89,10,10,9,15,8,22,0.00,2,,174
2012-9-4,78,71,64,68,66,64,100,87,65,29.92,29.87,29.79,10,7,0,12,6,18,0.07,5,Thunderstorm,132
2012-9-5,78,71,62,68,61,55,100,75,44,29.85,29.80,29.76,10,8,0,15,7,21,0.00,2,Thunderstorm,258
2012-9-6,77,68,60,61,51,46,94,55,34,29.95,29.92,29.90,10,10,7,12,5,20,0.00,1,,297
2012-9-7,68,62,57,57,55,52,94,82,60,29.93,29.87,29.83,10,9,3,15,6,18,0.39,7,,303
2012-9-8,66,60,53,52,49,43,88,72,43,29.87,29.82,29.77,10,10,10,15,11,22,0.03,3,,315
2012-9-9,69,61,53,52,49,43,88,67,40,30.13,30.03,29.88,10,10,10,15,10,18,0.00,3,,360
2012-9-10,73,62,50,55,51,46,94,70,38,30.18,30.11,30.03,10,10,5,17,5,24,0.00,0,,204
2012-9-11,80,68,57,63,55,48,83,63,39,30.04,29.99,29.93,10,10,10,21,13,28,0.00,0,,187
2012-9-12,80,68,55,59,52,37,88,53,33,30.20,30.07,29.97,10,10,7,21,13,29,0.11,3,,283
2012-9-13,60,56,50,54,47,43,94,71,55,30.31,30.26,30.19,10,10,10,16,7,23,0.02,5,,278
2012-9-14,69,57,46,52,44,37,93,65,35,30.32,30.29,30.27,10,10,7,10,5,18,0.00,1,,301
2012-9-15,68,56,46,55,50,43,87,71,52,30.33,30.22,30.06,10,10,7,14,8,20,0.00,1,,120
2012-9-16,78,68,57,52,47,45,82,50,32,30.05,29.97,29.89,10,10,10,20,11,32,0.00,0,,221
2012-9-17,64,58,51,54,50,45,88,71,52,29.89,29.83,29.78,10,10,8,20,10,28,0.25,6,,312
2012-9-18,55,50,44,45,37,28,82,63,36,29.98,29.88,29.81,10,10,10,21,16,26,0.08,5,,332
2012-9-19,62,48,35,50,39,28,93,67,39,29.99,29.84,29.64,10,10,6,26,10,39,0.24,4,Thunderstorm,194
2012-9-20,60,52,44,46,44,41,93,75,52,29.87,29.80,29.74,10,10,9,17,9,23,0.02,4,,254
2012-9-21,59,52,44,45,41,37,93,70,45,29.86,29.80,29.75,10,10,10,17,7,24,0.01,5,,252
2012-9-22,57,47,37,43,36,28,93,63,38,30.11,29.92,29.74,10,10,10,20,8,26,0.00,2,,331
2012-9-23,53,44,37,39,35,32,87,67,47,30.18,30.16,30.11,10,10,8,15,10,23,0.00,4,,293
2012-9-24,68,52,37,43,35,30,87,52,30,30.13,29.89,29.69,10,10,10,26,11,39,0.00,1,,225
2012-9-25,60,54,48,46,44,41,82,69,55,29.93,29.85,29.80,10,10,10,14,8,18,0.00,2,,50
2012-9-26,57,50,42,43,39,30,82,64,38,30.22,30.09,29.95,10,10,10,16,7,17,0.00,4,,17
2012-9-27,59,50,42,43,39,36,87,67,42,30.32,30.25,30.20,10,10,10,12,6,,0.00,0,,54
2012-9-28,66,52,39,46,41,36,93,68,34,30.21,30.16,30.08,10,9,0,8,3,,0.00,0,,250
2012-9-29,68,56,46,54,44,34,94,69,30,30.09,30.06,30.03,10,10,5,12,5,,0.00,0,,3
2012-9-30,60,52,44,52,47,41,94,82,59,30.05,30.02,29.96,10,10,2,10,6,,0.00,3,,29